createdAt,value
2023-05-10T00:00:23.780Z,43.10
2023-05-10T00:00:55.950Z,29.00
2023-05-10T00:01:30.760Z,28.40
2023-05-10T00:02:03.494Z,26.40
2023-05-10T00:02:36.032Z,36.72
2023-05-10T00:03:10.968Z,26.20
2023-05-10T00:03:43.409Z,36.95
2023-05-10T00:04:15.728Z,40.60
2023-05-10T00:04:50.502Z,29.35
2023-05-10T00:05:22.919Z,15.13
2023-05-10T00:05:55.119Z,21.15
2023-05-10T00:06:30.137Z,35.30
2023-05-10T00:07:04.944Z,18.13
2023-05-10T00:07:37.102Z,21.15
2023-05-10T00:08:12.011Z,18.40
2023-05-10T00:08:44.175Z,33.92
2023-05-10T00:09:16.617Z,19.80
2023-05-10T00:09:51.336Z,44.45
2023-05-10T00:10:23.675Z,37.28
2023-05-10T00:10:55.963Z,28.33
2023-05-10T00:11:30.883Z,25.40
2023-05-10T00:12:03.092Z,24.95
2023-05-10T00:12:35.318Z,19.10
2023-05-10T00:13:10.391Z,16.60
2023-05-10T00:13:42.616Z,15.02
2023-05-10T00:14:14.762Z,22.48
2023-05-10T00:14:49.484Z,20.08
2023-05-10T00:15:21.758Z,41.30
2023-05-10T00:15:54.308Z,23.77
2023-05-10T00:16:29.170Z,53.88
2023-05-10T00:17:01.780Z,12.25
2023-05-10T00:17:34.196Z,9.52
2023-05-10T00:18:09.070Z,28.15
2023-05-10T00:18:41.529Z,20.83
2023-05-10T00:19:13.813Z,23.60
2023-05-10T00:19:49.325Z,35.50
2023-05-10T00:20:21.628Z,22.15
2023-05-10T00:20:53.930Z,23.23
2023-05-10T00:21:29.462Z,41.50
2023-05-10T00:22:04.344Z,14.07
2023-05-10T00:22:36.610Z,30.80
2023-05-10T00:23:11.428Z,40.17
2023-05-10T00:23:43.597Z,13.13
2023-05-10T00:24:15.837Z,28.92
2023-05-10T00:24:50.661Z,23.50
2023-05-10T00:25:22.873Z,44.75
2023-05-10T00:25:55.064Z,15.90
2023-05-10T00:26:27.287Z,18.92
2023-05-10T00:27:05.090Z,16.52
2023-05-10T00:27:37.342Z,39.10
2023-05-10T00:28:09.561Z,14.57
2023-05-10T00:28:46.157Z,37.10
2023-05-10T00:29:18.408Z,23.48
2023-05-10T00:29:50.927Z,25.30
2023-05-10T00:30:25.955Z,19.67
2023-05-10T00:30:58.236Z,18.92
2023-05-10T00:31:30.464Z,20.05
2023-05-10T00:32:06.153Z,12.63
2023-05-10T00:32:38.367Z,44.92
2023-05-10T00:33:10.944Z,15.20
2023-05-10T00:33:45.713Z,17.67
2023-05-10T00:34:17.881Z,18.35
2023-05-10T00:34:50.697Z,52.00
2023-05-10T00:35:25.486Z,21.83
2023-05-10T00:35:57.774Z,37.63
2023-05-10T00:36:29.994Z,26.77
2023-05-10T00:37:07.281Z,36.72
2023-05-10T00:37:39.450Z,16.50
2023-05-10T00:38:11.692Z,12.77
2023-05-10T00:38:46.957Z,26.95
2023-05-10T00:39:19.279Z,29.13
2023-05-10T00:39:51.483Z,12.07
2023-05-10T00:40:26.442Z,32.90
2023-05-10T00:41:03.794Z,13.27
2023-05-10T00:41:38.226Z,24.98
2023-05-10T00:42:12.086Z,19.73
2023-05-10T00:42:46.872Z,17.33
2023-05-10T00:43:19.090Z,30.50
2023-05-10T00:43:52.956Z,16.88
2023-05-10T00:44:27.792Z,31.08
2023-05-10T00:44:59.997Z,14.75
2023-05-10T00:45:33.772Z,22.23
2023-05-10T00:46:08.852Z,20.25
2023-05-10T00:46:41.778Z,16.05
2023-05-10T00:47:14.186Z,14.13
2023-05-10T00:47:49.654Z,24.75
2023-05-10T00:48:23.374Z,28.02
2023-05-10T00:48:55.610Z,12.55
2023-05-10T00:49:30.645Z,23.17
2023-05-10T00:50:03.348Z,28.67
2023-05-10T00:50:36.101Z,39.42
2023-05-10T00:51:10.900Z,15.55
2023-05-10T00:51:45.667Z,30.48
2023-05-10T00:52:20.864Z,25.23
2023-05-10T00:52:56.245Z,38.13
2023-05-10T00:53:28.916Z,19.98
2023-05-10T00:54:01.499Z,17.80
2023-05-10T00:54:36.296Z,49.17
2023-05-10T00:55:10.856Z,21.40
2023-05-10T00:55:43.555Z,11.63
2023-05-10T00:56:18.962Z,22.55
2023-05-10T00:56:51.251Z,53.83
2023-05-10T00:57:23.849Z,31.45
2023-05-10T00:57:58.976Z,62.28
2023-05-10T00:58:32.143Z,29.92
2023-05-10T00:59:04.603Z,34.22
2023-05-10T00:59:39.758Z,19.98
2023-05-10T01:00:13.666Z,13.10
2023-05-10T01:00:47.615Z,31.10
2023-05-10T01:01:23.436Z,28.75
2023-05-10T01:01:57.180Z,42.40
2023-05-10T01:02:29.464Z,39.95
2023-05-10T01:03:06.663Z,13.85
2023-05-10T01:03:40.253Z,16.23
2023-05-10T01:04:13.902Z,11.90
2023-05-10T01:04:48.940Z,31.92
2023-05-10T01:05:21.390Z,28.70
2023-05-10T01:05:53.731Z,68.10
2023-05-10T01:06:28.943Z,22.17
2023-05-10T01:07:01.133Z,43.80
2023-05-10T01:07:35.872Z,20.17
2023-05-10T01:08:12.480Z,34.20
2023-05-10T01:08:44.736Z,23.17
2023-05-10T01:09:18.302Z,54.65
2023-05-10T01:09:53.233Z,43.03
2023-05-10T01:10:25.538Z,22.35
2023-05-10T01:10:58.291Z,30.25
2023-05-10T01:11:33.241Z,36.28
2023-05-10T01:12:08.111Z,38.22
2023-05-10T01:12:43.488Z,29.13
2023-05-10T01:13:27.368Z,38.20
2023-05-10T01:14:00.144Z,76.30
2023-05-10T01:14:32.366Z,20.40
2023-05-10T01:15:09.264Z,42.20
2023-05-10T01:15:42.031Z,42.72
2023-05-10T01:16:17.700Z,16.00
2023-05-10T01:16:51.083Z,40.42
2023-05-10T01:17:24.203Z,18.13
2023-05-10T01:18:00.408Z,34.08
2023-05-10T01:18:34.913Z,26.30
2023-05-10T01:19:13.215Z,52.50
2023-05-10T01:19:48.183Z,45.85
2023-05-10T01:20:20.448Z,26.48
2023-05-10T01:21:05.842Z,40.85
2023-05-10T01:21:47.315Z,20.80
2023-05-10T01:22:46.499Z,23.00
2023-05-10T01:23:39.901Z,29.98
2023-05-10T01:24:33.536Z,37.33
2023-05-10T01:25:56.180Z,30.48
2023-05-10T01:26:59.578Z,40.17
2023-05-10T01:28:05.137Z,23.77
2023-05-10T01:29:13.006Z,14.48
2023-05-10T01:30:17.592Z,45.00
2023-05-10T01:31:08.445Z,46.58
2023-05-10T01:32:15.605Z,21.13
2023-05-10T01:32:54.104Z,35.85
2023-05-10T01:33:32.873Z,30.23
2023-05-10T01:34:10.624Z,23.25
2023-05-10T01:34:49.376Z,22.90
2023-05-10T01:35:38.434Z,45.30
2023-05-10T01:36:17.844Z,35.05
2023-05-10T01:36:54.233Z,55.42
2023-05-10T01:37:37.341Z,36.35
2023-05-10T01:38:16.398Z,38.40
2023-05-10T01:38:53.077Z,13.35
2023-05-10T01:39:32.869Z,71.57
2023-05-10T01:40:14.811Z,15.60
2023-05-10T01:41:04.686Z,41.92
2023-05-10T01:41:43.368Z,24.10
2023-05-10T01:42:21.344Z,46.45
2023-05-10T01:43:03.812Z,21.70
2023-05-10T01:43:44.207Z,15.98
2023-05-10T01:45:06.238Z,25.90
2023-05-10T01:45:43.072Z,14.48
2023-05-10T01:46:19.071Z,35.20
2023-05-10T01:47:05.381Z,20.50
2023-05-10T01:47:43.125Z,35.75
2023-05-10T01:48:18.968Z,64.72
2023-05-10T01:48:55.536Z,31.02
2023-05-10T01:49:32.386Z,40.70
2023-05-10T01:50:10.258Z,51.72
2023-05-10T01:50:46.661Z,27.83
2023-05-10T01:51:30.462Z,58.97
2023-05-10T01:52:21.368Z,33.78
2023-05-10T01:52:56.718Z,21.63
2023-05-10T01:53:30.367Z,34.42
2023-05-10T01:54:08.573Z,32.38
2023-05-10T01:54:46.374Z,11.10
2023-05-10T01:55:22.718Z,38.33
2023-05-10T01:56:00.289Z,39.55
2023-05-10T01:56:34.541Z,32.53
2023-05-10T01:57:09.969Z,29.20
2023-05-10T01:57:46.009Z,15.13
2023-05-10T01:58:25.109Z,33.47
2023-05-10T01:58:58.495Z,40.53
2023-05-10T01:59:37.367Z,27.90
2023-05-10T02:00:14.646Z,29.55
2023-05-10T02:00:50.712Z,70.75
2023-05-10T02:01:24.067Z,48.15
2023-05-10T02:02:04.624Z,34.35
2023-05-10T02:02:41.002Z,27.02
2023-05-10T02:03:15.027Z,47.75
2023-05-10T02:03:51.582Z,20.02
2023-05-10T02:04:24.943Z,20.70
2023-05-10T02:04:59.616Z,6.35
2023-05-10T02:05:36.779Z,24.45
2023-05-10T02:06:11.905Z,22.92
2023-05-10T02:06:46.415Z,30.80
2023-05-10T02:07:22.133Z,34.72
2023-05-10T02:07:55.331Z,24.48
2023-05-10T02:08:28.513Z,28.77
2023-05-10T02:09:05.215Z,43.15
2023-05-10T02:09:38.428Z,13.38
2023-05-10T02:10:12.545Z,47.67
2023-05-10T02:10:49.409Z,17.23
2023-05-10T02:11:22.665Z,20.30
2023-05-10T02:11:55.758Z,19.90
2023-05-10T02:12:30.165Z,21.45
2023-05-10T02:13:07.344Z,50.72
2023-05-10T02:13:41.314Z,35.95
2023-05-10T02:14:14.624Z,41.42
2023-05-10T02:14:50.721Z,11.65
2023-05-10T02:15:25.984Z,49.40
2023-05-10T02:15:58.738Z,60.45
2023-05-10T02:16:34.651Z,42.72
2023-05-10T02:17:10.878Z,17.88
2023-05-10T02:17:44.541Z,18.83
2023-05-10T02:18:20.737Z,10.90
2023-05-10T02:18:54.143Z,37.22
2023-05-10T02:19:27.756Z,39.78
2023-05-10T02:20:05.689Z,29.23
2023-05-10T02:20:39.805Z,38.50
2023-05-10T02:21:13.711Z,21.92
2023-05-10T02:21:49.642Z,15.38
2023-05-10T02:22:23.600Z,12.45
2023-05-10T02:22:57.403Z,15.80
2023-05-10T02:23:33.290Z,39.53
2023-05-10T02:24:06.750Z,20.98
2023-05-10T02:24:41.095Z,24.67
2023-05-10T02:25:17.922Z,23.17
2023-05-10T02:25:52.482Z,17.63
2023-05-10T02:26:28.185Z,17.65
2023-05-10T02:27:04.396Z,41.85
2023-05-10T02:27:38.049Z,33.25
2023-05-10T02:28:12.737Z,18.75
2023-05-10T02:28:48.403Z,35.33
2023-05-10T02:29:21.633Z,27.88
2023-05-10T02:29:54.426Z,22.23
2023-05-10T02:30:29.515Z,42.72
2023-05-10T02:31:04.919Z,25.15
2023-05-10T02:31:39.997Z,21.27
2023-05-10T02:32:16.338Z,12.27
2023-05-10T02:32:52.951Z,35.58
2023-05-10T02:33:26.927Z,40.33
2023-05-10T02:34:00.168Z,14.48
2023-05-10T02:34:35.697Z,34.67
2023-05-10T02:35:09.675Z,33.83
2023-05-10T02:35:42.842Z,55.70
2023-05-10T02:36:19.070Z,22.83
2023-05-10T02:36:52.500Z,24.25
2023-05-10T02:37:26.769Z,24.38
2023-05-10T02:38:03.046Z,22.40
2023-05-10T02:38:37.724Z,39.78
2023-05-10T02:39:13.861Z,36.65
2023-05-10T02:39:49.872Z,23.30
2023-05-10T02:40:26.791Z,19.23
2023-05-10T02:41:01.144Z,23.88
2023-05-10T02:41:36.953Z,31.23
2023-05-10T02:42:09.971Z,51.63
2023-05-10T02:42:45.080Z,25.50
2023-05-10T02:43:22.260Z,30.73
2023-05-10T02:43:58.440Z,21.30
2023-05-10T02:44:32.314Z,37.85
2023-05-10T02:45:12.038Z,24.30
2023-05-10T02:45:48.315Z,49.15
2023-05-10T02:46:20.869Z,37.35
2023-05-10T02:46:57.151Z,35.33
2023-05-10T02:47:32.546Z,42.85
2023-05-10T02:48:05.397Z,32.78
2023-05-10T02:48:40.297Z,49.20
2023-05-10T02:49:12.749Z,33.13
2023-05-10T02:49:45.000Z,21.58
2023-05-10T02:50:19.874Z,29.20
2023-05-10T02:50:56.204Z,32.03
2023-05-10T02:51:36.238Z,37.97
2023-05-10T02:52:10.272Z,19.90
2023-05-10T02:52:47.577Z,48.25
2023-05-10T02:53:34.130Z,27.45
2023-05-10T02:54:13.281Z,13.95
2023-05-10T02:54:48.624Z,15.50
2023-05-10T02:55:26.280Z,35.78
2023-05-10T02:56:02.001Z,23.15
2023-05-10T02:56:37.647Z,48.65
2023-05-10T02:57:12.453Z,46.45
2023-05-10T02:57:54.998Z,28.00
2023-05-10T02:58:27.777Z,24.25
2023-05-10T02:59:00.065Z,33.45
2023-05-10T02:59:35.469Z,41.40
2023-05-10T03:00:09.657Z,34.67
2023-05-10T03:00:42.008Z,31.00
2023-05-10T03:01:16.796Z,41.75
2023-05-10T03:01:49.256Z,17.65
2023-05-10T03:02:22.298Z,38.55
2023-05-10T03:02:57.491Z,25.75
2023-05-10T03:03:33.255Z,35.00
2023-05-10T03:04:05.745Z,11.55
2023-05-10T03:04:38.025Z,19.95
2023-05-10T03:05:12.859Z,24.48
2023-05-10T03:05:45.165Z,22.23
2023-05-10T03:06:17.554Z,16.80
2023-05-10T03:06:49.949Z,31.70
2023-05-10T03:07:24.776Z,38.20
2023-05-10T03:07:57.569Z,30.25
2023-05-10T03:08:30.631Z,26.77
2023-05-10T03:09:06.908Z,29.15
2023-05-10T03:09:39.177Z,32.28
2023-05-10T03:10:12.191Z,16.95
2023-05-10T03:10:59.511Z,14.48
2023-05-10T03:11:43.451Z,25.15
2023-05-10T03:12:25.380Z,12.95
2023-05-10T03:13:11.637Z,18.77
2023-05-10T03:13:57.700Z,23.75
2023-05-10T03:14:43.675Z,30.65
2023-05-10T03:15:26.230Z,44.33
2023-05-10T03:16:03.242Z,55.38
2023-05-10T03:16:44.797Z,30.50
2023-05-10T03:17:26.512Z,39.72
2023-05-10T03:18:06.780Z,41.38
2023-05-10T03:18:48.058Z,32.03
2023-05-10T03:19:27.575Z,60.47
2023-05-10T03:20:05.527Z,30.42
2023-05-10T03:20:45.368Z,18.15
2023-05-10T03:21:20.092Z,40.30
2023-05-10T03:21:58.331Z,60.45
2023-05-10T03:22:36.906Z,36.88
2023-05-10T03:23:14.960Z,36.40
2023-05-10T03:23:53.738Z,40.85
2023-05-10T03:24:32.070Z,16.50
2023-05-10T03:25:07.969Z,17.13
2023-05-10T03:25:42.474Z,26.95
2023-05-10T03:26:24.273Z,37.25
2023-05-10T03:27:00.468Z,61.35
2023-05-10T03:27:33.604Z,28.90
2023-05-10T03:28:09.981Z,42.83
2023-05-10T03:28:43.100Z,69.43
2023-05-10T03:29:16.132Z,71.75
2023-05-10T03:29:52.377Z,39.08
2023-05-10T03:30:25.613Z,70.60
2023-05-10T03:30:58.941Z,87.97
2023-05-10T03:31:34.022Z,68.53
2023-05-10T03:32:06.487Z,62.65
2023-05-10T03:32:38.968Z,84.22
2023-05-10T03:33:16.697Z,38.45
2023-05-10T03:33:52.992Z,32.53
2023-05-10T03:34:31.978Z,71.63
2023-05-10T03:35:11.349Z,35.60
2023-05-10T03:35:45.319Z,61.55
2023-05-10T03:36:20.255Z,44.95
2023-05-10T03:36:52.623Z,36.50
2023-05-10T03:37:25.186Z,68.55
2023-05-10T03:37:59.927Z,48.13
2023-05-10T03:38:32.180Z,44.65
2023-05-10T03:39:04.952Z,41.38
2023-05-10T03:39:39.788Z,82.20
2023-05-10T03:40:14.404Z,52.47
2023-05-10T03:40:51.159Z,51.38
2023-05-10T03:41:23.545Z,74.93
2023-05-10T03:41:55.729Z,49.10
2023-05-10T03:42:30.676Z,32.75
2023-05-10T03:43:02.830Z,56.13
2023-05-10T03:43:35.216Z,39.63
2023-05-10T03:44:10.285Z,42.67
2023-05-10T03:44:42.607Z,40.05
2023-05-10T03:45:14.941Z,40.30
2023-05-10T03:45:49.735Z,77.40
2023-05-10T03:46:22.038Z,23.15
2023-05-10T03:46:54.438Z,66.88
2023-05-10T03:47:26.636Z,50.25
2023-05-10T03:48:01.747Z,22.38
2023-05-10T03:48:36.649Z,36.03
2023-05-10T03:49:08.783Z,28.00
2023-05-10T03:49:45.239Z,42.03
2023-05-10T03:50:18.589Z,58.75
2023-05-10T03:50:51.005Z,86.68
2023-05-10T03:51:29.180Z,45.13
2023-05-10T03:52:01.357Z,28.52
2023-05-10T03:52:33.606Z,25.13
2023-05-10T03:53:08.367Z,57.75
2023-05-10T03:53:40.542Z,29.45
2023-05-10T03:54:13.013Z,26.77
2023-05-10T03:54:47.739Z,52.38
2023-05-10T03:55:20.134Z,60.30
2023-05-10T03:55:52.323Z,39.88
2023-05-10T03:56:27.085Z,47.58
2023-05-10T03:56:59.985Z,50.10
2023-05-10T03:57:32.652Z,35.63
2023-05-10T03:58:08.158Z,31.15
2023-05-10T03:58:40.389Z,28.95
2023-05-10T03:59:12.686Z,30.90
2023-05-10T03:59:47.481Z,22.10
2023-05-10T04:00:20.198Z,97.03
2023-05-10T04:00:56.532Z,36.42
2023-05-10T04:01:31.289Z,20.85
2023-05-10T04:02:04.034Z,59.20
2023-05-10T04:02:36.456Z,42.58
2023-05-10T04:03:11.338Z,23.00
2023-05-10T04:03:47.099Z,91.80
2023-05-10T04:04:22.977Z,70.95
2023-05-10T04:04:55.893Z,29.60
2023-05-10T04:05:28.054Z,43.78
2023-05-10T04:06:01.272Z,44.05
2023-05-10T04:06:36.414Z,43.78
2023-05-10T04:07:08.719Z,44.42
2023-05-10T04:07:40.906Z,76.30
2023-05-10T04:08:13.134Z,57.75
2023-05-10T04:08:47.858Z,42.75
2023-05-10T04:09:20.116Z,36.67
2023-05-10T04:09:52.411Z,46.63
2023-05-10T04:10:27.216Z,60.03
2023-05-10T04:11:07.191Z,33.47
2023-05-10T04:11:42.057Z,40.25
2023-05-10T04:12:14.328Z,41.50
2023-05-10T04:12:46.607Z,47.33
2023-05-10T04:13:21.908Z,56.40
2023-05-10T04:13:54.591Z,44.78
2023-05-10T04:14:26.831Z,119.85
2023-05-10T04:15:02.489Z,35.15
2023-05-10T04:15:34.918Z,48.47
2023-05-10T04:16:07.508Z,51.92
2023-05-10T04:16:42.316Z,53.47
2023-05-10T04:17:14.556Z,42.95
2023-05-10T04:17:47.051Z,51.92
2023-05-10T04:18:21.813Z,98.65
2023-05-10T04:18:56.576Z,54.03
2023-05-10T04:19:30.827Z,69.50
2023-05-10T04:20:05.819Z,43.38
2023-05-10T04:20:38.121Z,85.47
2023-05-10T04:21:15.993Z,48.40
2023-05-10T04:21:48.135Z,50.15
2023-05-10T04:22:20.326Z,49.70
2023-05-10T04:22:55.063Z,41.03
2023-05-10T04:23:28.197Z,73.68
2023-05-10T04:24:00.334Z,58.17
2023-05-10T04:24:35.036Z,50.88
2023-05-10T04:25:08.466Z,59.80
2023-05-10T04:25:40.816Z,28.00
2023-05-10T04:26:15.646Z,58.45
2023-05-10T04:26:47.830Z,45.15
2023-05-10T04:27:19.961Z,48.80
2023-05-10T04:27:55.575Z,78.95
2023-05-10T04:28:28.613Z,45.28
2023-05-10T04:29:01.007Z,65.65
2023-05-10T04:29:35.750Z,72.95
2023-05-10T04:30:09.375Z,55.97
2023-05-10T04:30:41.738Z,66.75
2023-05-10T04:31:16.629Z,35.70
2023-05-10T04:31:50.037Z,65.95
2023-05-10T04:32:22.289Z,72.90
2023-05-10T04:32:57.097Z,57.08
2023-05-10T04:33:29.211Z,78.93
2023-05-10T04:34:06.844Z,65.00
2023-05-10T04:34:39.098Z,36.13
2023-05-10T04:35:16.008Z,49.80
2023-05-10T04:35:48.190Z,76.18
2023-05-10T04:36:20.346Z,56.88
2023-05-10T04:36:55.119Z,53.08
2023-05-10T04:37:27.363Z,79.80
2023-05-10T04:37:59.485Z,95.53
2023-05-10T04:38:34.320Z,53.97
2023-05-10T04:39:06.648Z,102.00
2023-05-10T04:39:40.282Z,49.88
2023-05-10T04:40:17.195Z,43.83
2023-05-10T04:40:49.544Z,51.00
2023-05-10T04:41:21.838Z,39.40
2023-05-10T04:41:56.782Z,20.80
2023-05-10T04:42:29.070Z,30.42
2023-05-10T04:43:01.505Z,24.15
2023-05-10T04:43:36.501Z,55.83
2023-05-10T04:44:08.661Z,43.95
2023-05-10T04:44:40.831Z,58.05
2023-05-10T04:45:15.792Z,50.28
2023-05-10T04:45:48.163Z,58.72
2023-05-10T04:46:20.462Z,66.20
2023-05-10T04:46:55.308Z,50.35
2023-05-10T04:47:27.589Z,89.65
2023-05-10T04:47:59.837Z,87.75
2023-05-10T04:48:34.918Z,47.17
2023-05-10T04:49:09.647Z,80.40
2023-05-10T04:49:41.786Z,87.60
2023-05-10T04:50:16.766Z,76.03
2023-05-10T04:50:49.093Z,72.00
2023-05-10T04:51:21.730Z,67.82
2023-05-10T04:51:56.557Z,64.10
2023-05-10T04:52:28.813Z,81.78
2023-05-10T04:53:01.085Z,58.50
2023-05-10T04:53:36.027Z,69.25
2023-05-10T04:54:08.308Z,69.18
2023-05-10T04:54:40.513Z,91.60
2023-05-10T04:55:15.317Z,57.22
2023-05-10T04:55:47.907Z,100.68
2023-05-10T04:56:20.106Z,106.80
2023-05-10T04:56:54.931Z,73.53
2023-05-10T04:57:27.289Z,88.85
2023-05-10T04:58:00.239Z,81.38
2023-05-10T04:58:34.979Z,48.80
2023-05-10T04:59:07.195Z,64.53
2023-05-10T04:59:39.440Z,56.35
2023-05-10T05:00:15.729Z,36.25
2023-05-10T05:00:48.080Z,112.95
2023-05-10T05:01:20.266Z,77.38
2023-05-10T05:01:55.056Z,75.22
2023-05-10T05:02:27.509Z,106.15
2023-05-10T05:02:59.861Z,46.10
2023-05-10T05:03:34.854Z,66.93
2023-05-10T05:04:09.655Z,63.55
2023-05-10T05:04:44.429Z,103.13
2023-05-10T05:05:16.791Z,110.88
2023-05-10T05:05:49.206Z,75.75
2023-05-10T05:06:25.974Z,68.80
2023-05-10T05:06:58.301Z,58.33
2023-05-10T05:07:31.816Z,90.20
2023-05-10T05:08:07.519Z,69.07
2023-05-10T05:08:39.693Z,114.75
2023-05-10T05:09:11.839Z,77.60
2023-05-10T05:09:46.551Z,121.88
2023-05-10T05:10:19.140Z,93.82
2023-05-10T05:10:52.401Z,72.05
2023-05-10T05:11:27.217Z,76.80
2023-05-10T05:11:59.472Z,89.30
2023-05-10T05:12:31.667Z,98.90
2023-05-10T05:13:06.493Z,111.90
2023-05-10T05:13:38.879Z,92.50
2023-05-10T05:14:13.600Z,110.03
2023-05-10T05:14:45.729Z,83.70
2023-05-10T05:15:18.234Z,98.60
2023-05-10T05:15:52.974Z,90.25
2023-05-10T05:16:25.258Z,98.60
2023-05-10T05:17:00.044Z,81.10
2023-05-10T05:17:32.720Z,81.32
2023-05-10T05:18:05.391Z,56.78
2023-05-10T05:18:40.241Z,71.57
2023-05-10T05:19:15.500Z,103.35
2023-05-10T05:19:47.684Z,66.32
2023-05-10T05:20:22.717Z,127.72
2023-05-10T05:20:54.895Z,96.50
2023-05-10T05:21:28.276Z,105.72
2023-05-10T05:22:03.122Z,77.70
2023-05-10T05:22:35.335Z,104.55
2023-05-10T05:23:07.500Z,87.63
2023-05-10T05:23:42.244Z,79.65
2023-05-10T05:24:14.423Z,58.13
2023-05-10T05:24:49.509Z,106.22
2023-05-10T05:25:21.791Z,129.15
2023-05-10T05:25:53.988Z,143.60
2023-05-10T05:26:28.945Z,73.22
2023-05-10T05:27:02.014Z,99.90
2023-05-10T05:27:34.312Z,90.13
2023-05-10T05:28:09.157Z,56.95
2023-05-10T05:28:41.329Z,117.28
2023-05-10T05:29:13.515Z,111.13
2023-05-10T05:29:48.234Z,120.15
2023-05-10T05:30:20.618Z,96.70
2023-05-10T05:30:52.897Z,127.63
2023-05-10T05:31:27.679Z,106.57
2023-05-10T05:32:00.039Z,104.53
2023-05-10T05:32:32.407Z,87.45
2023-05-10T05:33:07.568Z,69.80
2023-05-10T05:33:39.815Z,87.70
2023-05-10T05:34:14.611Z,102.03
2023-05-10T05:34:49.593Z,122.18
2023-05-10T05:35:21.992Z,93.18
2023-05-10T05:35:54.273Z,103.57
2023-05-10T05:36:29.075Z,104.35
2023-05-10T05:37:01.469Z,111.57
2023-05-10T05:37:33.766Z,127.38
2023-05-10T05:38:08.608Z,101.57
2023-05-10T05:38:41.475Z,94.35
2023-05-10T05:39:13.701Z,91.93
2023-05-10T05:39:49.348Z,111.30
2023-05-10T05:40:21.678Z,82.30
2023-05-10T05:40:53.961Z,115.55
2023-05-10T05:41:28.752Z,107.10
2023-05-10T05:42:00.975Z,96.95
2023-05-10T05:42:33.457Z,74.53
2023-05-10T05:43:08.269Z,65.82
2023-05-10T05:43:40.557Z,112.32
2023-05-10T05:44:12.839Z,74.80
2023-05-10T05:44:47.705Z,112.80
2023-05-10T05:45:20.083Z,110.88
2023-05-10T05:45:56.196Z,63.40
2023-05-10T05:46:28.487Z,71.82
2023-05-10T05:47:00.762Z,88.10
2023-05-10T05:47:35.507Z,96.72
2023-05-10T05:48:07.732Z,108.40
2023-05-10T05:49:06.993Z,116.27
2023-05-10T05:49:39.315Z,91.53
2023-05-10T05:50:14.372Z,70.57
2023-05-10T05:50:46.839Z,70.70
2023-05-10T05:51:19.093Z,96.30
2023-05-10T05:52:37.253Z,62.78
2023-05-10T05:53:10.387Z,90.35
2023-05-10T05:53:42.496Z,146.57
2023-05-10T05:54:17.183Z,62.10
2023-05-10T05:54:49.335Z,43.25
2023-05-10T05:55:21.491Z,55.38
2023-05-10T05:55:58.337Z,47.83
2023-05-10T05:56:30.534Z,60.05
2023-05-10T05:57:02.733Z,72.97
2023-05-10T05:57:37.469Z,63.40
2023-05-10T05:58:09.688Z,75.35
2023-05-10T05:58:44.777Z,54.63
2023-05-10T05:59:16.878Z,65.05
2023-05-10T05:59:49.523Z,43.63
2023-05-10T06:00:25.270Z,72.47
2023-05-10T06:00:57.962Z,91.45
2023-05-10T06:01:35.516Z,44.65
2023-05-10T06:02:07.810Z,61.72
2023-05-10T06:02:40.214Z,45.55
2023-05-10T06:03:15.143Z,47.42
2023-05-10T06:03:47.618Z,39.65
2023-05-10T06:04:20.264Z,53.72
2023-05-10T06:04:54.967Z,39.03
2023-05-10T06:05:27.153Z,48.30
2023-05-10T06:06:01.856Z,37.95
2023-05-10T06:06:34.039Z,28.20
2023-05-10T06:07:06.259Z,56.17
2023-05-10T06:07:43.857Z,45.60
2023-05-10T06:08:16.133Z,47.75
2023-05-10T06:08:48.291Z,49.80
2023-05-10T06:09:24.909Z,36.53
2023-05-10T06:09:57.271Z,55.55
2023-05-10T06:10:29.407Z,69.93
2023-05-10T06:11:05.345Z,68.82
2023-05-10T06:11:37.992Z,32.97
2023-05-10T06:12:10.335Z,79.97
2023-05-10T06:12:47.719Z,80.88
2023-05-10T06:13:19.978Z,38.22
2023-05-10T06:13:52.188Z,38.90
2023-05-10T06:14:27.094Z,56.65
2023-05-10T06:14:59.375Z,47.95
2023-05-10T06:15:31.601Z,34.25
2023-05-10T06:16:06.725Z,51.70
2023-05-10T06:16:38.971Z,62.40
2023-05-10T06:17:11.158Z,43.55
2023-05-10T06:17:45.949Z,22.48
2023-05-10T06:18:18.556Z,48.30
2023-05-10T06:18:55.563Z,87.35
2023-05-10T06:19:28.490Z,38.63
2023-05-10T06:20:03.241Z,61.20
2023-05-10T06:20:38.157Z,41.03
2023-05-10T06:21:12.964Z,58.47
2023-05-10T06:21:45.118Z,46.72
2023-05-10T06:22:17.287Z,52.67
2023-05-10T06:22:54.595Z,39.65
2023-05-10T06:23:26.741Z,78.40
2023-05-10T06:24:01.528Z,38.20
2023-05-10T06:24:33.673Z,59.40
2023-05-10T06:25:09.719Z,63.85
2023-05-10T06:25:41.841Z,67.47
2023-05-10T06:26:16.545Z,37.60
2023-05-10T06:26:50.902Z,36.90
2023-05-10T06:27:25.850Z,42.40
2023-05-10T06:28:01.120Z,62.55
2023-05-10T06:28:34.653Z,50.00
2023-05-10T06:29:07.140Z,55.95
2023-05-10T06:29:43.004Z,42.00
2023-05-10T06:30:19.533Z,44.83
2023-05-10T06:30:54.316Z,54.58
2023-05-10T06:31:26.531Z,54.85
2023-05-10T06:32:01.261Z,60.13
2023-05-10T06:32:33.892Z,51.58
2023-05-10T06:33:08.709Z,67.45
2023-05-10T06:33:41.525Z,37.30
2023-05-10T06:34:14.673Z,52.92
2023-05-10T06:34:49.372Z,39.75
2023-05-10T06:35:21.789Z,34.47
2023-05-10T06:35:56.500Z,91.88
2023-05-10T06:36:28.750Z,50.47
2023-05-10T06:37:04.706Z,57.63
2023-05-10T06:37:36.874Z,43.97
2023-05-10T06:38:14.358Z,63.95
2023-05-10T06:38:46.619Z,41.33
2023-05-10T06:39:18.825Z,35.50
2023-05-10T06:39:53.525Z,67.95
2023-05-10T06:40:25.709Z,53.35
2023-05-10T06:40:58.288Z,75.63
2023-05-10T06:41:33.036Z,51.65
2023-05-10T06:42:06.378Z,86.10
2023-05-10T06:42:41.425Z,41.58
2023-05-10T06:43:13.615Z,84.45
2023-05-10T06:43:48.475Z,48.72
2023-05-10T06:44:20.612Z,62.08
2023-05-10T06:44:52.796Z,59.05
2023-05-10T06:45:27.512Z,38.58
2023-05-10T06:45:59.840Z,54.13
2023-05-10T06:46:32.170Z,39.90
2023-05-10T06:47:07.047Z,37.90
2023-05-10T06:47:39.636Z,47.88
2023-05-10T06:48:14.520Z,58.78
2023-05-10T06:48:46.716Z,21.33
2023-05-10T06:49:21.842Z,34.67
2023-05-10T06:49:54.129Z,111.70
2023-05-10T06:50:28.921Z,58.08
2023-05-10T06:51:01.122Z,58.20
2023-05-10T06:51:34.017Z,22.13
2023-05-10T06:52:08.925Z,36.38
2023-05-10T06:52:41.428Z,48.33
2023-05-10T06:53:18.929Z,50.65
2023-05-10T06:53:51.112Z,68.32
2023-05-10T06:54:24.269Z,62.08
2023-05-10T06:54:59.224Z,63.47
2023-05-10T06:55:31.427Z,63.67
2023-05-10T06:56:06.541Z,52.88
2023-05-10T06:56:38.690Z,31.20
2023-05-10T06:57:27.541Z,56.20
2023-05-10T06:58:03.773Z,63.33
2023-05-10T06:58:39.233Z,55.30
2023-05-10T06:59:11.421Z,41.60
2023-05-10T06:59:43.978Z,39.63
2023-05-10T07:00:19.911Z,68.63
2023-05-10T07:01:02.794Z,49.97
2023-05-10T07:01:37.721Z,34.47
2023-05-10T07:02:09.940Z,57.88
2023-05-10T07:02:44.744Z,68.57
2023-05-10T07:03:17.198Z,37.38
2023-05-10T07:03:52.205Z,41.72
2023-05-10T07:04:24.515Z,26.75
2023-05-10T07:05:01.632Z,37.60
2023-05-10T07:05:35.531Z,60.17
2023-05-10T07:06:21.732Z,37.90
2023-05-10T07:07:03.005Z,57.10
2023-05-10T07:07:37.734Z,39.67
2023-05-10T07:08:10.238Z,42.28
2023-05-10T07:08:44.945Z,43.53
2023-05-10T07:09:20.688Z,49.45
2023-05-10T07:09:55.878Z,59.13
2023-05-10T07:10:31.041Z,56.83
2023-05-10T07:11:04.658Z,71.60
2023-05-10T07:11:37.383Z,47.33
2023-05-10T07:12:14.171Z,57.67
2023-05-10T07:12:47.463Z,66.72
2023-05-10T07:13:22.353Z,83.80
2023-05-10T07:13:54.601Z,79.82
2023-05-10T07:14:26.875Z,90.93
2023-05-10T07:15:01.625Z,74.15
2023-05-10T07:15:37.042Z,84.55
2023-05-10T07:16:11.774Z,80.68
2023-05-10T07:16:44.110Z,55.72
2023-05-10T07:17:16.448Z,87.30
2023-05-10T07:17:53.215Z,80.47
2023-05-10T07:18:25.818Z,78.28
2023-05-10T07:18:58.024Z,96.07
2023-05-10T07:19:33.911Z,98.47
2023-05-10T07:20:07.919Z,93.38
2023-05-10T07:20:40.095Z,71.07
2023-05-10T07:21:15.206Z,75.45
2023-05-10T07:21:47.373Z,60.80
2023-05-10T07:22:22.166Z,70.97
2023-05-10T07:22:54.342Z,41.72
2023-05-10T07:23:26.614Z,33.08
2023-05-10T07:24:04.103Z,51.28
2023-05-10T07:24:36.324Z,47.22
2023-05-10T07:25:09.257Z,63.75
2023-05-10T07:25:44.193Z,73.95
2023-05-10T07:26:16.753Z,41.78
2023-05-10T07:26:51.715Z,71.40
2023-05-10T07:27:24.015Z,74.75
2023-05-10T07:27:58.777Z,40.35
2023-05-10T07:28:31.137Z,45.60
2023-05-10T07:29:03.626Z,72.18
2023-05-10T07:29:38.788Z,38.67
2023-05-10T07:30:12.484Z,73.93